San Antonio, Valles Caldera, New Mexico Weather observations

Data are for 10 minute period ending at time listed.
 Day   Time   Solar   Ave.   Ave.  Ave.  Vector  Max.   Baro.   Total    
  of    of     Rad.   Air    Rel.  Wind   Wind   Wind  Press.  Precip.   
Year   Day            Temp.  Hum.  Speed  Dir.   Gust                    
2014   (MST)  Kw/m2    F      %     mph   deg.    mph    mb.     in.     
-------------------------------------------------------------------------
 205   20:20   0.00   61.7    48    1.7    32     4.2   397.6    0.00 
 205   20:30   0.00   61.0    49    1.8     5     3.6   397.2    0.00 
 205   20:40   0.00   59.6    51    2.3    44     4.8   397.6    0.00 
 205   20:50   0.00   58.7    54    2.3   355     4.8   397.2    0.00 
 205   21:00   0.00   58.4    55    2.9   353     6.6   397.2    0.00 
 205   21:10   0.00   57.5    58    2.6    42     4.2   397.2    0.00 
 205   21:20   0.00   57.1    59    2.6   355     5.4   397.2    0.00 
 205   21:30   0.00   57.2    57    1.5    58     3.0   397.2    0.00 
 205   21:40   0.00   57.3    58    1.1     6     3.6   397.2    0.00 
 205   21:50   0.00   56.7    59    1.6    12     3.6   396.9    0.00 
 205   22:00   0.00   57.3    57    1.0    18     3.0   397.2    0.00 
 205   22:10   0.00   56.5    62    1.9   340     4.2   397.2    0.00 
 205   22:20   0.00   55.1    64    2.1    11     4.2   397.2    0.00 
 205   22:30   0.00   55.4    62    1.7    67     3.0   396.9    0.00 
 205   22:40   0.00   54.8    66    2.1   131     4.2   396.9    0.00 
 205   22:50   0.00   54.6    66    1.4    78     3.0   397.2    0.00 
 205   23:00   0.00   54.8    64    1.3    14     3.6   396.9    0.00 
 205   23:10   0.00   54.4    66    0.8   276     3.0   396.9    0.00 
 205   23:20   0.00   53.2    70    1.9    98     4.8   396.9    0.00 
 205   23:30   0.00   52.8    70    1.7    19     3.6   396.9    0.00 
 205   23:40   0.00   52.7    68    0.5    12     3.0   396.9    0.00 
 205   23:50   0.00   52.7    68    1.3    49     3.0   396.9    0.00 
 206    0:00   0.00   53.1    65    2.6   356     4.2   396.9    0.00 
 206    0:10   0.00   52.3    68    1.1   348     2.4   396.9    0.00 
 206    0:20   0.00   51.9    69    2.2    69     4.2   396.9    0.00 
 206    0:30   0.00   51.4    70    3.0   347     5.4   396.9    0.00 
 206    0:40   0.00   50.5    73    1.1   253     4.8   396.9    0.00 
 206    0:50   0.00   49.8    74    2.3   103     4.2   396.9    0.00 
 206    1:00   0.00   49.7    75    2.4    28     5.4   396.9    0.00 
 206    1:10   0.00   49.6    75    2.8   319     6.0   396.9    0.00 
 206    1:20   0.00   49.5    75    2.6   118     8.4   396.9    0.00 
 206    1:30   0.00   46.7    83    3.3    13     6.6   397.2    0.00 
 206    1:40   0.00   47.8    80    2.6    13     6.0   396.9    0.00 
 206    1:50   0.00   47.7    79    1.4   326     3.6   396.9    0.00 
 206    2:00   0.00   47.6    80    2.4    46     4.2   396.9    0.00 
 206    2:10   0.00   47.8    79    1.3    44     3.6   396.9    0.00 
 206    2:20   0.00   48.3    76    1.6    34     3.6   396.9    0.00 
 206    2:30   0.00   46.8    80    0.3     3     3.0   396.9    0.00 
 206    2:40   0.00   46.5    81    1.1    98     3.6   396.9    0.00 
 206    2:50   0.00   46.5    81    1.8    25     3.6   396.9    0.00 
 206    3:00   0.00   46.4    80    1.3    93     3.6   396.9    0.00 
 206    3:10   0.00   46.4    81    0.5    66     2.4   396.9    0.00 
 206    3:20   0.00   46.7    79    0.2   360     1.2   396.9    0.00 
 206    3:30   0.00   46.2    80    0.4   327     1.8   396.9    0.00 
 206    3:40   0.00   45.5    82    0.6    38     1.8   396.9    0.00 
 206    3:50   0.00   44.3    85    0.1   124     1.2   396.9    0.00 
 206    4:00   0.00   45.1    84    1.1    49     2.4   397.2    0.00 
 206    4:10   0.00   45.5    82    1.7    30     3.0   396.9    0.00 
 206    4:20   0.00   45.3    82    0.0   223     1.2   396.9    0.00 
 206    4:30   0.00   44.5    84    0.8   336     3.0   396.9    0.00 
 206    4:40   0.00   44.0    85    1.0   328     3.0   396.9    0.00 
 206    4:50   0.00   44.0    85    0.7   282     3.0   396.9    0.00 
 206    5:00   0.00   42.6    85    0.4   338     1.8   396.9    0.00 
 206    5:10   0.00   42.7    89    1.5    91     3.0   397.2    0.00 
 206    5:20   0.01   43.5    88    0.3    55     1.8   397.2    0.00 
 206    5:30   0.01   43.8    86    0.5    32     2.4   397.2    0.00 
 206    5:40   0.02   43.6    86    1.0   281     2.4   397.2    0.00 
 206    5:50   0.02   43.0    87    0.0     0     0.0   397.2    0.00 
 206    6:00   0.02   42.8    88    0.4   123     1.8   397.2    0.00 
 206    6:10   0.03   43.1    89    0.6    28     3.0   397.2    0.00 
 206    6:20   0.03   43.8    88    0.0     0     0.0   397.2    0.00 
 206    6:30   0.03   44.3    87    0.2   106     1.8   397.2    0.00 
 206    6:40   0.18   45.3    86    0.8   321     2.4   397.2    0.00 
 206    6:50   0.25   50.1    78    0.5   242     1.8   397.2    0.00 
 206    7:00   0.28   53.4    71    1.2   122     3.0   396.9    0.00 
 206    7:10   0.31   55.9    66    0.9    71     2.4   396.9    0.00 
 206    7:20   0.35   60.0    61    0.8   262     3.0   397.2    0.00 
 206    7:30   0.38   61.7    57    1.9   244     3.0   397.6    0.00 
 206    7:40   0.41   61.4    60    1.9   248     3.0   397.6    0.00 
 206    7:50   0.45   64.4    55    1.4   256     3.6   397.9    0.00 
 206    8:00   0.48   64.9    54    2.1   249     3.6   397.9    0.00 
 206    8:10   0.51   65.9    55    2.5   240     4.2   398.2    0.00 
 206    8:20   0.55   67.3    56    3.0   245     4.2   398.6    0.00 
 206    8:30   0.58   69.2    52    3.0   239     4.2   398.9    0.00 
 206    8:40   0.61   72.8    43    2.2   273     4.2   399.3    0.00 
 206    8:50   0.65   75.4    37    2.6   268     4.8   399.3    0.00 
 206    9:00   0.68   78.0    35    5.6   282    11.9   399.9    0.00 
 206    9:10   0.71   76.4    34    9.0   275    15.5   399.9    0.00 
 206    9:20   0.74   77.0    33    9.7   272    16.1   400.3    0.00 
 206    9:30   0.76   76.7    34   10.0   264    14.9   400.6    0.00 
 206    9:40   0.71   76.8    34   10.0   270    17.9   400.6    0.00 
 206    9:50   0.86   77.1    33   10.2   282    19.1   400.9    0.00 
 206   10:00   0.92   78.1    31    7.9   295    14.9   401.3    0.00 
 206   10:10   0.89   79.4    31    5.7   285    12.5   401.3    0.00 
 206   10:20   0.97   78.7    29    9.7   291    16.7   401.3    0.00 
 206   10:30   0.62   77.6    30    5.6   299    12.5   401.3    0.00 
 206   10:40   0.78   77.7    31    6.8   302    14.3   401.3    0.00 
 206   10:50   0.64   77.0    32    8.4   288    13.7   401.3    0.00 
 206   11:00   0.96   77.2    32    7.8   292    16.1   401.3    0.00 
 206   11:10   0.96   78.0    31   10.4   278    16.1   401.6    0.00 
 206   11:20   0.91   77.0    32    6.1   298    11.9   401.3    0.00 
 206   11:30   0.95   78.4    32    6.2   292    10.8   401.6    0.00 
 206   11:40   1.08   79.6    31    5.8   330    11.9   402.0    0.00 
 206   11:50   0.35   77.9    31    7.5   301    13.1   401.6    0.00 
 206   12:00   0.25   75.4    32    7.5   291    13.7   400.9    0.00 
 206   12:10   0.56   75.4    33    5.9   281     9.6   400.9    0.00 
 206   12:20   0.29   76.1    32    6.0   306    12.5   400.6    0.00 
 206   12:30   0.72   76.6    31    4.5   311    10.2   400.6    0.00 
 206   12:40   0.98   78.6    30    7.5   278    12.5   401.3    0.00 
 206   12:50   1.09   80.0    28    6.9   289    13.1   401.3    0.00 
 206   13:00   0.85   79.6    29    7.9   254    13.1   401.6    0.00 
 206   13:10   0.68   77.3    31    8.1   274    12.5   401.3    0.00 
 206   13:20   0.39   78.3    30    7.2   298    13.7   401.3    0.00 
 206   13:30   0.49   77.5    30    6.0   319    12.5   401.3    0.00 
 206   13:40   0.33   77.7    29    5.3   294    11.3   401.3    0.00 
 206   13:50   0.30   77.1    29    5.9   281    10.2   400.9    0.00 
 206   14:00   0.22   76.1    33    5.3   253     8.4   400.6    0.00 
 206   14:10   0.20   75.4    35    6.5   280    11.9   400.6    0.00 
 206   14:20   0.17   75.6    31    4.9   313     9.6   400.3    0.00 
 206   14:30   0.16   76.1    31    4.9   288    11.3   400.3    0.00 
 206   14:40   0.16   76.1    31    2.9   293     6.0   399.9    0.00 
 206   14:50   0.16   76.4    31    3.9   307     6.0   399.9    0.00 
 206   15:00   0.17   76.4    31    2.8   354     5.4   399.9    0.00 
 206   15:10   0.33   77.0    30    2.8   352     6.6   400.3    0.00 
 206   15:20   0.53   78.9    29    2.8   204     6.6   400.6    0.00 
 206   15:30   0.84   80.7    28    6.9   268    11.9   401.3    0.00 
 206   15:40   0.80   81.2    27   10.6   256    15.5   401.6    0.00 
 206   15:50   0.73   81.6    25    9.1   264    13.7   402.0    0.00 
 206   16:00   0.67   82.2    24    7.8   271    13.7   402.3    0.00 
 206   16:10   0.61   82.6    24    8.2   273    14.3   402.6    0.00 
 206   16:20   0.30   81.1    26    5.2   285    10.8   402.3    0.00 
 206   16:30   0.55   81.9    24    5.2   269     9.0   402.6    0.00 
 206   16:40   0.55   82.4    24    6.7   268    11.9   402.6    0.00 
 206   16:50   0.52   82.4    24    7.2   267    13.7   402.6    0.00 
 206   17:00   0.48   81.4    25    6.9   258    10.8   403.0    0.00 
 206   17:10   0.41   81.3    25    8.0   268    14.3   403.0    0.00 
 206   17:20   0.37   81.1    25    6.9   262     9.6   402.6    0.00 
 206   17:30   0.33   80.6    25    6.5   269     9.6   402.6    0.00 
 206   17:40   0.28   80.9    24    6.6   290    10.8   402.3    0.00 
 206   17:50   0.24   80.2    24    7.5   284    11.3   402.0    0.00 
 206   18:00   0.21   79.9    25    5.4   287     7.8   402.0    0.00 
 206   18:10   0.19   79.7    24    5.1   299     7.8   401.6    0.00 
 206   18:20   0.16   79.3    28    4.0   274     6.0   401.3    0.00 
 206   18:30   0.12   78.1    31    2.1   281     4.8   401.3    0.00 
 206   18:40   0.09   77.0    30    3.5   293     7.2   400.9    0.00 
 206   18:50   0.05   75.6    30    2.6   332     4.2   400.6    0.00 
 206   19:00   0.02   73.6    32    3.4     9     4.2   400.3    0.00 
 206   19:10   0.01   71.3    35    3.5    16     4.8   399.9    0.00 
 206   19:20   0.01   67.4    47    1.8   103     3.0   399.6    0.00 
 206   19:30   0.00   66.0    46    2.2    63     3.6   398.9    0.00 
 206   19:40   0.00   65.9    45    2.3   105     3.6   398.6    0.00 
 206   19:50   0.00   64.7    46    1.8    64     3.6   398.2    0.00 
 206   20:00   0.00   64.1    47    2.5    25     4.2   398.2    0.00 
 206   20:10   0.00   63.2    49    1.9    16     3.0   397.9    0.00 

Return to San Antonio, Valles Caldera graphs page.


Western Regional Climate Center,wrcc@dri.edu